Time;durP1;ratioP1;P1;durP2;ratioP2;P2;SDS_P1;SDS_P2;PMS_P1;PMS_P2;Temp;Humidity;BMP_temperature;BMP_pressure;BME280_temperature;BME280_humidity;BME280_pressure;Samples;Min_cycle;Max_cycle;Signal;HPM_P1;HPM_P2
2023/08/22 00:01:04;;;;;;;18.65;7.68;;;;;;;13.80;68.22;99675.59;4886529;29;20119;-73
2023/08/22 00:03:29;;;;;;;23.92;8.13;;;;;;;13.67;67.89;99648.91;4899958;29;20131;-73
2023/08/22 00:05:56;;;;;;;32.45;8.30;;;;;;;13.93;68.07;99676.16;4888930;29;20490;-73
2023/08/22 00:08:22;;;;;;;30.05;8.55;;;;;;;13.92;68.06;99663.13;4887853;29;20064;-73
2023/08/22 00:10:47;;;;;;;25.85;8.13;;;;;;;13.97;68.01;99661.28;4886392;29;20036;-73
2023/08/22 00:13:15;;;;;;;25.08;7.65;;;;;;;14.14;68.01;99674.78;4888161;29;20100;-73
2023/08/22 00:15:41;;;;;;;27.40;7.60;;;;;;;14.03;67.86;99639.31;4897123;29;20036;-73
2023/08/22 00:18:08;;;;;;;15.27;6.95;;;;;;;14.18;67.69;99648.53;4885602;29;20047;-73
2023/08/22 00:20:36;;;;;;;22.23;6.63;;;;;;;14.00;67.59;99609.72;4887550;29;20830;-73
2023/08/22 00:23:03;;;;;;;18.90;7.15;;;;;;;14.01;67.51;99602.75;4885533;29;20131;-73
2023/08/22 00:25:29;;;;;;;22.35;7.60;;;;;;;14.25;67.54;99642.22;4897193;29;20051;-73
2023/08/22 00:27:55;;;;;;;23.13;8.75;;;;;;;14.44;67.32;99667.03;4892399;29;20093;-73
2023/08/22 00:30:21;;;;;;;15.02;6.88;;;;;;;14.35;67.13;99635.84;4886304;29;20057;-73
2023/08/22 00:32:48;;;;;;;17.10;6.82;;;;;;;14.43;67.62;99640.88;4884537;29;20183;-72
2023/08/22 00:35:14;;;;;;;19.20;6.95;;;;;;;14.41;67.24;99629.59;4885103;29;20539;-73
2023/08/22 00:37:40;;;;;;;15.18;7.38;;;;;;;14.53;67.14;99650.22;4898461;29;20084;-72
2023/08/22 00:40:07;;;;;;;17.67;6.72;;;;;;;14.52;66.96;99648.50;4883873;29;20052;-74
2023/08/22 00:42:33;;;;;;;17.75;6.97;;;;;;;14.54;67.01;99643.19;4869853;29;20559;-74
2023/08/22 00:44:59;;;;;;;17.00;6.38;;;;;;;14.42;67.10;99620.84;4890393;29;20063;-74
2023/08/22 00:47:25;;;;;;;13.70;6.53;;;;;;;14.54;67.30;99651.06;4885764;29;20041;-73
2023/08/22 00:49:52;;;;;;;25.92;7.15;;;;;;;14.55;67.10;99647.53;4887017;29;20075;-74
2023/08/22 00:52:18;;;;;;;13.82;6.90;;;;;;;14.54;67.24;99645.81;4874122;29;20063;-73
2023/08/22 00:54:46;;;;;;;14.88;5.68;;;;;;;14.65;67.07;99649.00;4902539;29;20044;-74
2023/08/22 00:57:13;;;;;;;12.43;5.93;;;;;;;14.52;66.86;99627.53;4897897;29;20231;-72
2023/08/22 00:59:40;;;;;;;17.25;6.10;;;;;;;14.64;66.84;99642.06;4859667;29;20451;-73
2023/08/22 01:02:08;;;;;;;8.60;5.00;;;;;;;14.42;66.78;99598.16;4886175;29;20044;-73
2023/08/22 01:04:35;;;;;;;9.48;4.75;;;;;;;14.44;66.54;99592.84;4882172;29;20044;-73
2023/08/22 01:07:11;;;;;;;12.35;4.85;;;;;;;14.69;66.14;99631.47;4865786;29;20068;-75
2023/08/22 01:09:45;;;;;;;9.85;4.55;;;;;;;14.74;65.95;99638.28;4874034;29;20044;-75
2023/08/22 01:12:32;;;;;;;10.20;4.88;;;;;;;14.76;65.48;99630.41;4903476;29;20036;-73
2023/08/22 01:15:09;;;;;;;16.42;6.25;;;;;;;14.80;65.42;99631.16;4902452;29;20044;-72
2023/08/22 01:17:36;;;;;;;12.90;5.47;;;;;;;14.81;65.38;99630.25;4886830;29;20788;-73
2023/08/22 01:20:04;;;;;;;14.20;6.40;;;;;;;14.74;65.38;99606.00;4899604;29;20535;-71
2023/08/22 01:22:30;;;;;;;19.00;6.50;;;;;;;14.85;65.45;99616.19;4867822;29;20586;-72
2023/08/22 01:24:57;;;;;;;16.13;5.88;;;;;;;14.76;65.77;99602.44;4879462;29;20522;-72
2023/08/22 01:27:28;;;;;;;12.38;5.68;;;;;;;14.82;65.64;99608.41;4900390;29;20047;-71
2023/08/22 01:30:08;;;;;;;12.98;5.53;;;;;;;14.86;65.92;99610.03;4872554;29;20052;-73
2023/08/22 01:32:40;;;;;;;10.02;5.18;;;;;;;14.73;65.43;99586.81;4895603;29;20758;-74
2023/08/22 01:35:10;;;;;;;;;;;;;;;14.71;65.32;99601.72;4886738;29;20112;-73
2023/08/22 01:37:38;;;;;;;9.32;4.10;;;;;;;14.50;65.50;99576.97;4888129;29;19920;-73
2023/08/22 01:40:07;;;;;;;8.13;4.53;;;;;;;14.64;65.62;99599.28;4891005;29;20045;-72
2023/08/22 01:42:33;;;;;;;8.43;4.43;;;;;;;14.46;65.35;99575.34;4888819;29;20455;-73
2023/08/22 01:44:59;;;;;;;18.00;4.00;;;;;;;14.64;65.11;99599.28;4892428;29;20103;-73
2023/08/22 01:47:25;;;;;;;8.98;3.80;;;;;;;14.61;65.30;99595.84;4891390;29;20036;-73
2023/08/22 01:49:51;;;;;;;16.67;5.20;;;;;;;14.59;64.98;99596.81;4888796;29;20048;-72
2023/08/22 01:52:17;;;;;;;7.18;3.90;;;;;;;14.55;65.14;99584.69;4891005;29;20035;-72
2023/08/22 01:54:43;;;;;;;10.15;4.50;;;;;;;14.64;64.98;99589.69;4892671;29;20060;-74
2023/08/22 01:57:09;;;;;;;5.78;3.72;;;;;;;14.67;65.53;99594.84;4889594;29;20124;-73
2023/08/22 01:59:35;;;;;;;11.70;4.20;;;;;;;14.58;65.33;99580.22;4905485;29;20716;-73
2023/08/22 02:02:01;;;;;;;8.88;4.75;;;;;;;14.75;65.61;99603.34;4904524;29;20087;-74
2023/08/22 02:04:27;;;;;;;11.80;4.65;;;;;;;14.63;65.24;99572.25;4898657;29;20442;-72
2023/08/22 02:06:53;;;;;;;8.85;4.72;;;;;;;14.33;65.73;99526.88;4891077;29;20182;-75
2023/08/22 02:09:19;;;;;;;10.38;4.82;;;;;;;14.73;65.23;99593.81;4888776;29;20247;-73
2023/08/22 02:11:45;;;;;;;10.60;5.20;;;;;;;14.74;65.87;99603.41;4876933;29;20044;-74
2023/08/22 02:14:12;;;;;;;11.40;5.15;;;;;;;14.61;65.87;99567.03;4888968;29;20052;-73
2023/08/22 02:16:38;;;;;;;19.95;6.22;;;;;;;14.67;66.16;99573.00;4891004;29;20045;-73
2023/08/22 02:19:04;;;;;;;16.15;6.38;;;;;;;14.53;66.06;99550.72;4870861;29;20059;-74
2023/08/22 02:21:30;;;;;;;16.80;6.20;;;;;;;14.56;66.48;99573.31;4891857;29;20068;-74
2023/08/22 02:23:56;;;;;;;19.00;6.95;;;;;;;14.71;66.49;99586.00;4903379;29;20056;-75
2023/08/22 02:26:21;;;;;;;15.50;6.63;;;;;;;14.74;66.64;99590.31;4887664;29;20598;-73
2023/08/22 02:28:48;;;;;;;15.55;6.80;;;;;;;14.75;66.71;99585.00;4887345;29;20058;-73
2023/08/22 02:31:14;;;;;;;14.82;6.82;;;;;;;14.57;66.82;99548.84;4876949;29;20044;-74
2023/08/22 02:33:42;;;;;;;19.73;6.68;;;;;;;14.59;66.94;99561.00;4890175;29;20052;-73
2023/08/22 02:36:08;;;;;;;19.25;7.22;;;;;;;14.50;66.93;99539.47;4888828;29;20512;-73
2023/08/22 02:38:34;;;;;;;17.77;7.38;;;;;;;14.44;67.18;99530.91;4887299;29;20045;-73
2023/08/22 02:41:00;;;;;;;19.50;7.70;;;;;;;14.70;67.35;99573.81;4877273;29;20071;-74
2023/08/22 02:43:27;;;;;;;16.88;8.00;;;;;;;14.56;67.39;99549.75;4888576;29;20040;-74
2023/08/22 02:45:54;;;;;;;17.92;8.52;;;;;;;14.61;67.34;99560.97;4883355;29;20461;-74
2023/08/22 02:48:20;;;;;;;18.88;9.23;;;;;;;14.50;67.58;99540.34;4889558;29;20055;-74
2023/08/22 02:50:50;;;;;;;20.75;9.52;;;;;;;14.65;67.56;99575.69;4870550;29;20044;-73
2023/08/22 02:53:16;;;;;;;24.25;10.15;;;;;;;14.63;67.75;99574.88;4871520;29;20196;-73
2023/08/22 02:55:47;;;;;;;23.42;10.02;;;;;;;14.55;68.03;99553.28;4871817;29;20105;-73
2023/08/22 02:58:12;;;;;;;24.48;10.45;;;;;;;14.37;68.04;99529.34;4888679;29;20040;-73
2023/08/22 03:00:38;;;;;;;27.42;11.57;;;;;;;14.41;67.97;99538.84;4876736;29;20503;-74
2023/08/22 03:03:05;;;;;;;30.63;10.77;;;;;;;14.38;67.96;99530.19;4892340;29;20044;-76
2023/08/22 03:05:31;;;;;;;27.77;11.75;;;;;;;14.48;68.28;99546.50;4904874;29;20183;-72
2023/08/22 03:07:58;;;;;;;30.13;11.23;;;;;;;14.65;68.27;99574.81;4873758;29;20112;-71
2023/08/22 03:10:24;;;;;;;26.05;12.35;;;;;;;14.73;68.35;99568.47;4890706;29;20124;-71
2023/08/22 03:12:50;;;;;;;28.65;11.60;;;;;;;14.80;68.28;99574.38;4872781;29;20052;-73
2023/08/22 03:15:16;;;;;;;28.77;12.10;;;;;;;14.87;68.39;99568.06;4874908;29;20504;-73
2023/08/22 03:17:42;;;;;;;26.00;11.25;;;;;;;14.96;68.51;99566.94;4875775;29;20076;-75
2023/08/22 03:20:09;;;;;;;34.83;12.02;;;;;;;15.06;67.98;99563.13;4876875;29;20048;-74
2023/08/22 03:22:35;;;;;;;36.47;11.43;;;;;;;14.99;67.92;99529.31;4892829;29;20095;-73
2023/08/22 03:25:01;;;;;;;37.75;12.30;;;;;;;14.96;68.19;99517.16;4889212;29;20057;-74
2023/08/22 03:27:31;;;;;;;37.40;12.57;;;;;;;15.31;68.01;99551.88;4861537;29;20059;-74
2023/08/22 03:29:57;;;;;;;33.15;12.32;;;;;;;15.11;67.89;99509.72;4889373;29;20063;-75
2023/08/22 03:32:23;;;;;;;30.40;10.77;;;;;;;15.34;67.60;99551.75;4860434;29;20562;-75
2023/08/22 03:34:49;;;;;;;26.85;10.55;;;;;;;15.26;67.70;99534.56;4868934;29;20455;-76
2023/08/22 03:37:15;;;;;;;25.77;11.90;;;;;;;15.38;67.40;99533.28;4870528;29;20052;-75
2023/08/22 03:39:41;;;;;;;21.98;9.05;;;;;;;15.58;67.43;99546.59;4874122;29;20384;-74
2023/08/22 03:42:09;;;;;;;21.23;8.23;;;;;;;15.65;67.27;99547.28;4882822;29;20040;-75
2023/08/22 03:44:34;;;;;;;20.67;8.85;;;;;;;15.62;67.16;99532.47;4889233;29;20048;-73
2023/08/22 03:47:01;;;;;;;17.20;6.90;;;;;;;15.76;66.82;99536.41;4872141;29;20052;-75
2023/08/22 03:49:38;;;;;;;17.77;7.53;;;;;;;15.85;66.63;99533.47;4886449;29;20040;-75
2023/08/22 03:52:05;;;;;;;16.88;7.60;;;;;;;15.81;66.41;99518.72;4887018;29;20100;-75
2023/08/22 03:54:32;;;;;;;13.60;7.55;;;;;;;16.08;66.77;99522.19;4888055;29;20078;-75
2023/08/22 03:56:58;;;;;;;23.80;8.13;;;;;;;16.33;66.35;99525.69;4898776;29;20075;-74
2023/08/22 03:59:25;;;;;;;21.65;8.05;;;;;;;16.45;66.30;99496.31;4902437;29;20099;-73
2023/08/22 04:01:51;;;;;;;23.45;7.95;;;;;;;16.80;65.98;99504.63;4886228;29;20044;-74
2023/08/22 04:04:17;;;;;;;21.35;8.30;;;;;;;17.02;65.51;99499.38;4886846;29;20047;-74
2023/08/22 04:06:43;;;;;;;15.90;8.18;;;;;;;17.25;64.68;99500.22;4887486;29;20151;-74
2023/08/22 04:09:09;;;;;;;26.40;10.25;;;;;;;17.16;63.73;99484.84;4902337;29;20095;-73
2023/08/22 04:11:37;;;;;;;20.52;9.02;;;;;;;17.24;63.40;99510.81;4887613;29;20040;-76
2023/08/22 04:14:03;;;;;;;19.27;8.63;;;;;;;16.80;63.65;99477.47;4902604;29;20086;-74
2023/08/22 04:16:29;;;;;;;26.48;8.23;;;;;;;16.95;64.00;99489.16;4886551;29;20401;-73
2023/08/22 04:18:55;;;;;;;23.02;7.10;;;;;;;17.32;63.81;99511.38;4885544;29;20044;-72
2023/08/22 04:21:21;;;;;;;15.15;6.82;;;;;;;17.30;63.40;99506.16;4885920;29;20048;-73
2023/08/22 04:23:46;;;;;;;15.70;6.93;;;;;;;17.22;62.89;99489.00;4887870;29;20047;-71
2023/08/22 04:26:12;;;;;;;24.88;7.38;;;;;;;16.98;62.91;99468.03;4886169;29;20049;-73
2023/08/22 04:28:38;;;;;;;15.02;6.80;;;;;;;17.06;63.08;99473.84;4869185;29;20051;-73
2023/08/22 04:31:04;;;;;;;18.05;6.47;;;;;;;17.34;63.12;99501.59;4889860;29;20052;-74
2023/08/22 04:33:31;;;;;;;14.43;6.50;;;;;;;17.57;63.07;99507.69;4888669;29;20588;-73
2023/08/22 04:35:57;;;;;;;14.32;6.35;;;;;;;17.82;63.02;99496.97;4899827;29;20045;-72
2023/08/22 04:38:23;;;;;;;13.93;6.97;;;;;;;18.34;62.62;99490.31;4886387;29;20083;-74
2023/08/22 04:40:51;;;;;;;14.38;7.05;;;;;;;18.43;61.99;99415.25;4870552;29;20037;-73
2023/08/22 04:43:37;;;;;;;11.57;6.03;;;;;;;19.51;60.74;99501.44;4874308;29;20049;-74
2023/08/22 04:46:03;;;;;;;11.57;5.80;;;;;;;19.92;59.70;99492.38;4868817;29;20091;-74
2023/08/22 04:48:29;;;;;;;12.05;5.78;;;;;;;20.25;57.98;99465.06;4888683;29;20425;-74
2023/08/22 04:50:55;;;;;;;7.78;5.30;;;;;;;20.66;56.75;99463.72;4888546;29;20044;-73
2023/08/22 04:53:22;;;;;;;10.95;5.05;;;;;;;21.28;55.75;99486.69;4885115;29;20048;-73
2023/08/22 04:55:48;;;;;;;8.23;5.28;;;;;;;21.71;54.54;99488.63;4901253;29;20049;-73
2023/08/22 04:58:14;;;;;;;11.13;5.18;;;;;;;22.00;53.79;99478.03;4894238;29;20059;-72
2023/08/22 05:00:39;;;;;;;14.63;5.95;;;;;;;22.11;52.06;99462.34;4886788;29;20460;-73
2023/08/22 05:03:07;;;;;;;10.57;5.40;;;;;;;22.17;51.71;99479.63;4886006;29;20052;-74
2023/08/22 05:05:33;;;;;;;12.82;6.22;;;;;;;22.16;51.34;99477.94;4888189;29;20049;-73
2023/08/22 05:08:00;;;;;;;16.30;5.78;;;;;;;22.21;51.33;99484.63;4886956;29;20089;-73
2023/08/22 05:10:26;;;;;;;13.73;5.35;;;;;;;22.07;51.43;99474.06;4874077;29;20578;-72
2023/08/22 05:12:52;;;;;;;12.85;5.63;;;;;;;22.22;50.92;99480.22;4882770;29;20095;-74
2023/08/22 05:15:20;;;;;;;11.10;5.50;;;;;;;22.19;51.09;99446.78;4864344;29;20823;-74
2023/08/22 05:17:46;;;;;;;10.05;5.30;;;;;;;22.72;50.71;99477.97;4861347;29;20052;-75
2023/08/22 05:20:13;;;;;;;16.30;5.43;;;;;;;22.93;49.76;99446.56;4875925;29;20032;-74
2023/08/22 05:22:40;;;;;;;9.02;4.95;;;;;;;23.50;49.36;99476.41;4891887;29;20044;-75
2023/08/22 05:25:07;;;;;;;9.85;4.90;;;;;;;23.69;48.24;99465.38;4896236;29;20053;-73
2023/08/22 05:27:33;;;;;;;8.90;5.22;;;;;;;23.72;48.04;99481.09;4887182;29;20151;-75
2023/08/22 05:29:59;;;;;;;8.98;4.93;;;;;;;24.41;48.14;99469.25;4891804;29;20135;-77
2023/08/22 05:32:25;;;;;;;10.15;4.75;;;;;;;24.85;47.02;99461.66;4870908;29;20060;-74
2023/08/22 05:34:51;;;;;;;11.32;5.22;;;;;;;25.24;46.22;99453.47;4877620;29;20040;-75
2023/08/22 05:37:17;;;;;;;14.18;5.63;;;;;;;25.59;44.80;99422.47;4906817;29;20048;-75
2023/08/22 05:39:44;;;;;;;13.40;5.00;;;;;;;26.73;43.92;99394.72;4886515;29;20427;-75
2023/08/22 05:42:10;;;;;;;12.25;5.10;;;;;;;27.52;42.02;99384.59;4907178;29;20040;-75
2023/08/22 05:44:36;;;;;;;12.88;5.45;;;;;;;27.90;40.39;99431.22;4893290;29;20228;-77
2023/08/22 05:47:04;;;;;;;16.02;6.25;;;;;;;27.72;40.70;99449.69;4876328;29;20179;-75
2023/08/22 05:49:32;;;;;;;11.40;5.65;;;;;;;27.29;40.37;99442.66;4886592;29;20044;-73
2023/08/22 05:52:03;;;;;;;10.60;5.10;;;;;;;27.26;39.60;99429.56;4895971;29;20131;-77
2023/08/22 05:54:31;;;;;;;12.57;6.18;;;;;;;27.41;39.91;99449.59;4877841;29;20127;-74
2023/08/22 05:56:58;;;;;;;12.00;5.65;;;;;;;27.98;39.64;99440.38;4890379;29;20127;-75
2023/08/22 05:59:24;;;;;;;10.18;6.55;;;;;;;27.79;38.37;99424.13;4892408;29;20047;-73
2023/08/22 06:01:51;;;;;;;10.98;5.30;;;;;;;27.60;38.40;99392.81;4881368;29;20099;-77
2023/08/22 06:04:18;;;;;;;13.88;5.72;;;;;;;28.94;38.17;99360.44;4887116;29;20053;-76
2023/08/22 06:06:45;;;;;;;14.50;5.85;;;;;;;30.38;35.84;99418.34;4895869;29;20037;-76
2023/08/22 06:09:11;;;;;;;10.18;5.60;;;;;;;31.40;35.01;99381.31;4876075;29;20050;-74
2023/08/22 06:11:38;;;;;;;14.20;5.95;;;;;;;31.58;33.32;99419.88;4889037;29;20183;-77
2023/08/22 06:14:05;;;;;;;12.98;5.60;;;;;;;30.73;33.51;99386.34;4885935;29;20051;-76
2023/08/22 06:16:32;;;;;;;13.25;6.00;;;;;;;29.61;34.43;99354.22;4892221;29;20044;-77
2023/08/22 06:18:58;;;;;;;14.15;5.65;;;;;;;28.98;34.90;99433.28;4874707;29;20164;-74
2023/08/22 06:21:24;;;;;;;12.77;5.72;;;;;;;27.59;35.52;99368.88;4892484;29;20036;-75
2023/08/22 06:23:49;;;;;;;12.63;6.53;;;;;;;27.24;36.55;99418.16;4887310;29;20175;-78
2023/08/22 06:26:16;;;;;;;10.43;5.57;;;;;;;26.63;36.63;99414.28;4887111;29;20060;-77
2023/08/22 06:28:42;;;;;;;12.10;5.55;;;;;;;25.72;37.60;99351.28;4873788;29;20074;-76
2023/08/22 06:31:08;;;;;;;16.83;5.82;;;;;;;25.71;38.11;99421.50;4873998;29;20143;-75
2023/08/22 06:33:36;;;;;;;9.32;5.30;;;;;;;25.22;38.46;99402.16;4869612;29;20048;-74
2023/08/22 06:36:02;;;;;;;12.10;5.63;;;;;;;25.00;38.89;99403.81;4903642;29;20059;-76
2023/08/22 06:38:31;;;;;;;11.18;6.00;;;;;;;24.59;39.92;99347.41;4904259;29;20049;-75
2023/08/22 06:41:04;;;;;;;13.73;5.57;;;;;;;24.91;39.53;99386.72;4875930;29;20048;-75
2023/08/22 06:43:30;;;;;;;10.82;5.60;;;;;;;25.14;39.88;99400.09;4885610;29;20512;-75
2023/08/22 06:45:57;;;;;;;12.38;5.93;;;;;;;25.25;39.32;99413.44;4890538;29;20167;-76
2023/08/22 06:48:23;;;;;;;10.02;5.38;;;;;;;24.62;39.41;99325.88;4871928;29;20052;-75
2023/08/22 06:50:49;;;;;;;14.27;5.80;;;;;;;25.12;39.51;99391.38;4902992;29;20115;-76
2023/08/22 06:53:15;;;;;;;12.40;6.10;;;;;;;25.29;39.45;99407.84;4905508;29;20074;-79
2023/08/22 06:55:45;;;;;;;15.07;5.68;;;;;;;25.38;39.30;99391.19;4904119;29;20695;-77
2023/08/22 06:58:11;;;;;;;11.57;5.97;;;;;;;25.55;38.91;99398.75;4905412;29;20431;-76
2023/08/22 07:00:36;;;;;;;14.65;5.60;;;;;;;25.22;38.57;99365.75;4899618;29;20725;-78
2023/08/22 07:03:03;;;;;;;9.75;5.40;;;;;;;24.72;38.91;99317.25;4888610;29;20052;-75
2023/08/22 07:05:29;;;;;;;9.88;5.32;;;;;;;24.65;38.58;99299.06;4861488;29;20052;-77
2023/08/22 07:07:55;;;;;;;10.25;5.15;;;;;;;25.41;38.75;99401.59;4903702;29;20048;-76
2023/08/22 07:10:21;;;;;;;9.13;5.03;;;;;;;25.78;38.79;99393.41;4889673;29;20055;-77
2023/08/22 07:12:47;;;;;;;8.02;4.53;;;;;;;26.16;38.88;99346.03;4904927;29;20040;-78
2023/08/22 07:15:13;;;;;;;9.77;5.00;;;;;;;26.66;37.74;99342.84;4872766;29;20044;-78
2023/08/22 07:17:39;;;;;;;9.65;4.80;;;;;;;27.47;36.79;99382.34;4889748;29;20044;-77
2023/08/22 07:20:08;;;;;;;12.80;4.45;;;;;;;28.05;36.00;99364.00;4887240;29;20119;-79
2023/08/22 07:22:34;;;;;;;12.50;5.28;;;;;;;28.40;35.43;99290.44;4889666;29;20036;-77
2023/08/22 07:25:03;;;;;;;9.27;4.20;;;;;;;29.42;34.51;99357.81;4877145;29;20071;-78
2023/08/22 07:27:30;;;;;;;8.15;4.13;;;;;;;29.54;33.69;99312.91;4888431;29;20056;-78
2023/08/22 07:29:55;;;;;;;12.20;4.53;;;;;;;30.14;32.55;99327.69;4888862;29;20057;-76
2023/08/22 07:32:21;;;;;;;9.60;4.45;;;;;;;30.67;32.18;99347.53;4876435;29;20053;-79
2023/08/22 07:34:48;;;;;;;10.68;4.90;;;;;;;30.70;31.49;99338.31;4903952;29;20040;-76
2023/08/22 07:37:14;;;;;;;8.70;4.90;;;;;;;30.45;31.68;99316.59;4904618;29;20077;-79
2023/08/22 07:39:41;;;;;;;12.27;5.05;;;;;;;30.43;32.28;99326.66;4874398;29;20047;-78
2023/08/22 07:42:08;;;;;;;7.78;4.20;;;;;;;30.30;31.85;99284.97;4902561;29;20100;-76
2023/08/22 07:44:34;;;;;;;10.45;4.47;;;;;;;30.91;31.14;99351.38;4875252;29;20079;-75
2023/08/22 07:47:00;;;;;;;9.50;4.53;;;;;;;30.73;31.01;99327.28;4871561;29;20048;-76
2023/08/22 07:49:26;;;;;;;15.05;5.60;;;;;;;31.15;30.82;99353.44;4886660;29;20056;-77
2023/08/22 07:51:53;;;;;;;48.83;35.60;;;;;;;31.52;30.62;99336.19;4891205;29;20044;-77
2023/08/22 07:54:19;;;;;;;13.00;7.03;;;;;;;32.17;30.63;99317.78;4905683;29;20558;-76
2023/08/22 07:56:45;;;;;;;31.95;24.35;;;;;;;33.92;28.56;99313.84;4903259;29;20433;-77
2023/08/22 07:59:14;;;;;;;71.32;56.28;;;;;;;35.11;26.69;99332.34;4889833;29;20127;-85
2023/08/22 08:01:43;;;;;;;17.20;11.60;;;;;;;37.05;25.30;99310.34;4893711;29;20127;-78
2023/08/22 08:04:09;;;;;;;12.38;6.32;;;;;;;38.97;23.93;99338.53;4888101;29;20037;-79
2023/08/22 08:06:35;;;;;;;9.38;4.18;;;;;;;39.86;21.91;99332.66;4886405;29;20135;-77
2023/08/22 08:09:04;;;;;;;8.57;3.67;;;;;;;40.94;19.96;99319.94;4886258;29;20112;-80
2023/08/22 08:11:31;;;;;;;7.03;3.80;;;;;;;41.27;19.48;99290.69;4887280;29;20040;-76
2023/08/22 08:14:01;;;;;;;5.88;3.30;;;;;;;41.18;19.37;99316.56;4886653;29;20060;-74
2023/08/22 08:16:27;;;;;;;4.45;3.08;;;;;;;42.28;18.25;99294.81;4887639;29;20147;-76
2023/08/22 08:18:53;;;;;;;4.78;3.10;;;;;;;42.83;17.41;99307.38;4887602;29;20551;-79
2023/08/22 08:21:19;;;;;;;6.00;3.00;;;;;;;43.42;16.81;99276.34;4889289;29;20041;-73
2023/08/22 08:23:45;;;;;;;6.88;2.80;;;;;;;44.03;15.99;99310.66;4890179;29;20044;-78
2023/08/22 08:26:12;;;;;;;5.20;3.13;;;;;;;43.67;15.96;99305.34;4873098;29;20051;-78
2023/08/22 08:28:38;;;;;;;4.85;3.20;;;;;;;43.33;15.80;99308.75;4889156;29;20063;-76
2023/08/22 08:31:06;;;;;;;7.30;5.75;;;;;;;42.55;16.59;99317.06;4889464;29;20088;-76
2023/08/22 08:33:32;;;;;;;5.78;4.00;;;;;;;42.38;16.20;99296.97;4891593;29;20167;-76
2023/08/22 08:35:58;;;;;;;4.57;3.40;;;;;;;41.98;16.52;99301.13;4871193;29;20044;-76
2023/08/22 08:38:24;;;;;;;5.30;3.25;;;;;;;40.39;17.09;99317.88;4885992;29;20068;-78
2023/08/22 08:40:54;;;;;;;3.30;3.00;;;;;;;39.31;18.33;99304.81;4900800;29;20049;-74
2023/08/22 08:43:21;;;;;;;;;;;;;;;38.47;19.06;99304.44;4888584;29;20041;-80
2023/08/22 08:45:49;;;;;;;5.20;3.25;;;;;;;37.08;19.64;99289.09;4890797;29;19919;-78
2023/08/22 08:48:18;;;;;;;5.20;3.22;;;;;;;35.89;20.37;99242.66;4884335;29;20068;-76
2023/08/22 08:50:46;;;;;;;3.08;2.70;;;;;;;34.43;21.27;99290.94;4890411;29;20044;-76
2023/08/22 08:53:12;;;;;;;3.22;2.70;;;;;;;33.32;22.27;99273.78;4900477;29;20432;-77
2023/08/22 08:55:41;;;;;;;4.43;3.05;;;;;;;32.21;23.00;99297.59;4902258;29;20526;-77
2023/08/22 08:58:08;;;;;;;4.97;3.00;;;;;;;31.87;24.26;99313.84;4889339;29;20048;-76
2023/08/22 09:00:34;;;;;;;8.07;3.83;;;;;;;31.21;24.50;99317.03;4887112;29;20143;-76
2023/08/22 09:03:00;;;;;;;10.52;4.75;;;;;;;30.56;25.29;99326.28;4878189;29;20541;-77
2023/08/22 09:05:28;;;;;;;7.85;3.83;;;;;;;29.73;26.40;99317.34;4894858;29;20053;-80
2023/08/22 09:07:54;;;;;;;7.43;3.50;;;;;;;29.25;27.42;99330.78;4890693;29;20052;-81
2023/08/22 09:10:34;;;;;;;9.85;3.53;;;;;;;28.76;28.49;99327.34;4862702;29;20092;-78
2023/08/22 09:13:03;;;;;;;9.17;3.43;;;;;;;28.16;29.19;99322.94;4889458;29;20419;-78
2023/08/22 09:15:29;;;;;;;11.10;3.50;;;;;;;27.69;30.39;99316.34;4894660;29;20072;-78
2023/08/22 09:17:56;;;;;;;7.35;3.22;;;;;;;27.35;31.15;99341.47;4881947;29;20050;-77
2023/08/22 09:20:22;;;;;;;11.32;3.72;;;;;;;26.90;31.81;99336.44;4858693;29;20044;-79
2023/08/22 09:22:48;;;;;;;11.57;4.10;;;;;;;26.61;32.59;99345.91;4891140;29;20057;-81
2023/08/22 09:25:15;;;;;;;6.97;3.85;;;;;;;26.23;33.15;99338.38;4889507;29;20051;-77
2023/08/22 09:27:41;;;;;;;10.88;3.90;;;;;;;25.86;33.85;99344.84;4891128;29;20068;-75
2023/08/22 09:30:08;;;;;;;8.25;3.88;;;;;;;25.61;34.70;99349.47;4888534;29;20499;-76
2023/08/22 09:32:34;;;;;;;9.00;4.00;;;;;;;25.11;34.83;99310.69;4879027;29;20545;-77
2023/08/22 09:35:02;;;;;;;13.25;3.60;;;;;;;25.10;35.30;99350.72;4898031;29;20104;-81
2023/08/22 09:37:34;;;;;;;5.32;3.50;;;;;;;24.69;36.00;99326.28;4892063;29;20048;-77
2023/08/22 09:40:08;;;;;;;6.03;3.55;;;;;;;24.29;36.71;99300.00;4867257;29;20052;-76
2023/08/22 09:42:38;;;;;;;8.38;3.40;;;;;;;24.23;37.10;99327.88;4893588;29;20044;-80
2023/08/22 09:45:05;;;;;;;7.57;3.75;;;;;;;23.43;37.58;99218.50;4892654;29;20044;-81
2023/08/22 09:47:31;;;;;;;11.02;3.78;;;;;;;23.95;38.30;99329.03;4896374;29;20045;-80
2023/08/22 09:50:04;;;;;;;13.10;4.22;;;;;;;23.85;38.60;99331.50;4891706;29;20048;-82
2023/08/22 09:52:31;;;;;;;9.07;4.28;;;;;;;23.85;38.95;99358.06;4894057;29;20057;-78
2023/08/22 09:54:58;;;;;;;8.70;4.20;;;;;;;23.74;39.21;99362.31;4894546;29;20044;-84
2023/08/22 09:57:25;;;;;;;9.90;4.95;;;;;;;23.05;39.23;99259.19;4893058;29;20075;-81
2023/08/22 09:59:52;;;;;;;10.40;4.47;;;;;;;23.52;39.76;99340.88;4892347;29;20040;-74
2023/08/22 10:02:21;;;;;;;8.02;3.92;;;;;;;23.47;40.13;99357.16;4887854;29;20985;-78
2023/08/22 10:04:48;;;;;;;10.65;4.60;;;;;;;23.19;40.70;99335.13;4889781;29;20044;-71
2023/08/22 10:07:14;;;;;;;8.90;4.80;;;;;;;23.22;41.09;99348.22;4888765;29;20048;-70
2023/08/22 10:09:42;;;;;;;12.07;5.13;;;;;;;23.31;40.96;99367.97;4887803;29;20049;-71
2023/08/22 10:12:12;;;;;;;15.95;5.20;;;;;;;23.01;41.43;99331.97;4894844;29;20045;-81
2023/08/22 10:14:45;;;;;;;13.40;4.45;;;;;;;22.45;41.92;99282.66;4890034;29;20422;-73
2023/08/22 10:17:13;;;;;;;8.80;4.32;;;;;;;22.76;42.04;99370.75;4892677;29;20575;-72
2023/08/22 10:19:39;;;;;;;12.65;4.70;;;;;;;22.51;42.35;99345.84;4905198;29;20103;-72
2023/08/22 10:22:09;;;;;;;15.27;4.90;;;;;;;22.35;42.37;99345.13;4878151;29;20476;-77
2023/08/22 10:24:36;;;;;;;11.30;4.93;;;;;;;22.35;42.55;99361.03;4916159;29;20130;-82
2023/08/22 10:27:07;;;;;;;11.55;4.97;;;;;;;21.91;42.76;99333.78;4879700;29;20041;-77
2023/08/22 10:29:40;;;;;;;8.73;5.18;;;;;;;21.72;42.87;99344.72;4909208;29;20535;-81
2023/08/22 10:32:08;;;;;;;11.00;4.57;;;;;;;21.78;43.49;99376.94;4898810;29;20574;-79
2023/08/22 10:34:34;;;;;;;11.88;4.68;;;;;;;21.56;44.13;99381.84;4892392;29;20091;-78
2023/08/22 10:37:02;;;;;;;7.03;3.80;;;;;;;21.26;44.80;99357.16;4904204;29;20044;-78
2023/08/22 10:39:39;;;;;;;7.75;4.15;;;;;;;21.00;45.45;99350.75;4894433;29;20495;-76
2023/08/22 10:42:06;;;;;;;7.55;4.28;;;;;;;21.02;45.59;99368.25;4894324;29;20029;-77
2023/08/22 10:44:36;;;;;;;10.57;4.25;;;;;;;20.86;45.72;99380.66;4906663;29;20049;-78
2023/08/22 10:47:03;;;;;;;8.25;4.53;;;;;;;20.83;46.41;99392.25;4867299;29;20245;-77
2023/08/22 10:49:33;;;;;;;12.00;4.03;;;;;;;20.26;46.93;99338.22;4906744;29;20127;-74
2023/08/22 10:52:07;;;;;;;6.47;4.15;;;;;;;20.40;47.69;99369.13;4895261;29;20040;-76
2023/08/22 10:55:20;;;;;;;7.07;4.15;;;;;;;20.21;48.13;99369.31;4896123;29;20048;-77
2023/08/22 10:57:48;;;;;;;11.43;4.35;;;;;;;20.21;49.38;99387.78;4886430;29;20040;-74
2023/08/22 11:00:24;;;;;;;9.55;4.65;;;;;;;20.29;49.89;99398.81;4877920;29;20081;-72
2023/08/22 11:02:55;;;;;;;11.05;5.38;;;;;;;20.11;50.14;99390.09;4887771;29;20068;-73
2023/08/22 11:05:22;;;;;;;9.52;4.82;;;;;;;20.26;50.96;99400.75;4890221;29;20589;-77
2023/08/22 11:07:48;;;;;;;8.30;5.20;;;;;;;20.11;50.82;99379.53;4904182;29;20040;-72
2023/08/22 11:10:25;;;;;;;7.13;4.40;;;;;;;20.19;51.56;99402.88;4903696;29;20049;-80
2023/08/22 11:12:55;;;;;;;9.27;5.00;;;;;;;19.82;51.94;99352.06;4892992;29;20104;-75
2023/08/22 11:15:21;;;;;;;10.45;5.40;;;;;;;20.00;52.03;99377.47;4891028;29;20044;-74
2023/08/22 11:17:50;;;;;;;10.73;5.57;;;;;;;20.22;52.56;99405.34;4877312;29;20566;-74
2023/08/22 11:20:18;;;;;;;11.88;5.60;;;;;;;20.07;52.59;99385.06;4891008;29;20048;-76
2023/08/22 11:22:44;;;;;;;9.20;5.32;;;;;;;20.23;52.63;99409.69;4889046;29;20036;-74
2023/08/22 11:25:12;;;;;;;10.73;5.03;;;;;;;20.09;52.62;99376.13;4892227;29;20041;-70
2023/08/22 11:27:41;;;;;;;7.07;4.53;;;;;;;20.10;52.22;99366.41;4871503;29;20044;-78